Weather History for Fosston, MN

Change the Weather History Date:

Friday, May 3, 2013

  Actual Average Record
Temperature  
Mean Temperature 36 °F -  
Max Temperature 50 °F 62 °F 89 °F (1952)
Min Temperature 23 °F 34 °F 6 °F (1967)
Degree Days  
Heating Degree Days 28    
Moisture  
Dew Point 24 °F    
Average Humidity 65    
Maximum Humidity 93    
Minimum Humidity 43    
Precipitation  
Precipitation 0.00 in - - ()
Sea Level Pressure  
Sea Level Pressure 30.37 in    
Wind  
Wind Speed 5 mph (NE)    
Max Wind Speed 13 mph    
Max Gust Speed 20 mph    
Visibility 10 miles    
Events      
Averages and records for this station are not official NWS values.
T = Trace of Precipitation, MM = Missing Value Source: NWS Daily Summary

Daily Weather History Graph

Daily Weather History Graph

Search for Another Location

Airport:

Trip Planner

Search our weather history database for the weather conditions in past years. The results will help you decide how hot, cold, wet, or windy it might be!

Date:

Astronomy

May. 03, 2013 Rise Set
Actual Time 6:02 AM CDT 8:38 PM CDT
Civil Twilight 5:27 AM CDT 9:13 PM CDT
Nautical Twilight 4:43 AM CDT 9:57 PM CDT
Astronomical Twilight 3:52 AM CDT 10:48 PM CDT
Moon 2:54 AM CDT (5/3) 2:08 PM CDT (5/3)
Length of Visible Light 15h 45m
Length of Day
14h 36m
Last Quarter, 37% of the Moon is Illuminated
May 3
Last Quarter
May 9
New
May 17
First Quarter
May 24
Full
May 31
Last Quarter

Hourly Weather History & Observations

Time (CDT) Temp. Windchill Dew Point Humidity Pressure Visibility Wind Dir Wind Speed Gust Speed Precip Events Conditions
12:15 AM 26.6 °F - 21.2 °F 80% 30.52 in 10.0 mi Calm Calm - N/A   Clear
12:35 AM 26.6 °F 22.6 °F 21.2 °F 80% 30.52 in 10.0 mi NE 3.5 mph - N/A   Clear
12:55 AM 26.6 °F 21.2 °F 21.2 °F 80% 30.52 in 10.0 mi NE 4.6 mph - N/A   Clear
1:15 AM 26.6 °F 22.6 °F 21.2 °F 80% 30.51 in 10.0 mi NE 3.5 mph - N/A   Clear
1:35 AM 26.6 °F - 21.2 °F 80% 30.51 in 10.0 mi Calm Calm - N/A   Clear
1:55 AM 26.6 °F - 19.4 °F 74% 30.50 in 10.0 mi Calm Calm - N/A   Clear
2:15 AM 24.8 °F - 19.4 °F 80% 30.49 in 10.0 mi Calm Calm - N/A   Clear
2:35 AM 24.8 °F - 19.4 °F 80% 30.49 in 10.0 mi Calm Calm - N/A   Clear
3:16 AM 23.0 °F - 19.4 °F 86% 30.48 in 10.0 mi Calm Calm - N/A   Clear
3:35 AM 23.0 °F - 19.4 °F 86% 30.48 in 10.0 mi Calm Calm - N/A   Clear
3:55 AM 23.0 °F - 21.2 °F 93% 30.48 in 10.0 mi Calm Calm - N/A   Clear
4:15 AM 24.8 °F - 19.4 °F 80% 30.47 in 10.0 mi Calm Calm - N/A   Clear
4:35 AM 24.8 °F - 19.4 °F 80% 30.47 in 10.0 mi Calm Calm - N/A   Clear
4:55 AM 24.8 °F - 19.4 °F 80% 30.47 in 10.0 mi Calm Calm - N/A   Clear
5:15 AM 23.0 °F - 19.4 °F 86% 30.47 in 10.0 mi Calm Calm - N/A   Clear
5:35 AM 23.0 °F - 19.4 °F 86% 30.47 in 10.0 mi Calm Calm - N/A   Clear
5:55 AM 23.0 °F - 19.4 °F 86% 30.47 in 10.0 mi Calm Calm - N/A   Clear
6:15 AM 23.0 °F - 17.6 °F 80% 30.47 in 10.0 mi Calm Calm - N/A   Clear
6:35 AM 23.0 °F - 19.4 °F 86% 30.47 in 10.0 mi Calm Calm - N/A   Clear
6:55 AM 26.6 °F - 21.2 °F 80% 30.47 in 10.0 mi Calm Calm - N/A   Clear
7:15 AM 26.6 °F 21.2 °F 21.2 °F 80% 30.46 in 10.0 mi NNE 4.6 mph - N/A   Clear
7:35 AM 28.4 °F 20.4 °F 23.0 °F 80% 30.45 in 10.0 mi NNE 8.1 mph - N/A   Clear
7:55 AM 28.4 °F 21.2 °F 24.8 °F 86% 30.45 in 10.0 mi NE 6.9 mph - N/A   Clear
8:15 AM 28.4 °F 20.4 °F 24.8 °F 86% 30.45 in 10.0 mi NNE 8.1 mph - N/A   Clear
8:35 AM 30.2 °F 21.9 °F 24.8 °F 80% 30.45 in 10.0 mi NE 9.2 mph - N/A   Clear
8:55 AM 30.2 °F 22.6 °F 24.8 °F 80% 30.44 in 10.0 mi NNE 8.1 mph - N/A   Clear
9:15 AM 32.0 °F 24.2 °F 24.8 °F 75% 30.44 in 10.0 mi NNE 9.2 mph - N/A   Clear
9:33 AM 32.0 °F 24.8 °F 24.8 °F 75% 30.43 in 10.0 mi NNE 8.1 mph - N/A   Clear
9:55 AM 33.8 °F 25.8 °F 24.8 °F 70% 30.42 in 10.0 mi NE 10.4 mph - N/A   Clear
10:15 AM 33.8 °F 25.8 °F 24.8 °F 70% 30.41 in 10.0 mi NNE 10.4 mph - N/A   Clear
10:35 AM 35.6 °F 27.1 °F 24.8 °F 65% 30.40 in 10.0 mi NE 12.7 mph - N/A   Clear
10:55 AM 35.6 °F 29.2 °F 24.8 °F 65% 30.40 in 10.0 mi NE 8.1 mph - N/A   Clear
11:15 AM 37.4 °F 29.8 °F 24.8 °F 60% 30.39 in 10.0 mi NE 11.5 mph - N/A   Clear
11:35 AM 37.4 °F 30.8 °F 24.8 °F 60% 30.39 in 10.0 mi NE 9.2 mph - N/A   Clear
11:55 AM 39.2 °F 32.0 °F 24.8 °F 56% 30.38 in 10.0 mi NNE 11.5 mph 17.3 mph N/A   Clear
12:15 PM 39.2 °F 33.0 °F 26.6 °F 61% 30.38 in 10.0 mi NNE 9.2 mph 16.1 mph N/A   Clear
12:35 PM 41.0 °F 37.1 °F 26.6 °F 57% 30.38 in 10.0 mi NE 5.8 mph 17.3 mph N/A   Clear
12:55 PM 42.8 °F 36.6 °F 26.6 °F 53% 30.36 in 10.0 mi NE 11.5 mph 17.3 mph N/A   Clear
1:15 PM 42.8 °F 37.0 °F 28.4 °F 57% 30.35 in 10.0 mi NE 10.4 mph 17.3 mph N/A   Clear
1:35 PM 44.6 °F 38.8 °F 28.4 °F 53% 30.33 in 10.0 mi North 11.5 mph - N/A   Clear
1:55 PM 44.6 °F 39.7 °F 28.4 °F 53% 30.32 in 10.0 mi NNE 9.2 mph 18.4 mph N/A   Clear
2:15 PM 44.6 °F 38.8 °F 28.4 °F 53% 30.31 in 10.0 mi NNE 11.5 mph - N/A   Clear
2:35 PM 44.6 °F 38.8 °F 26.6 °F 49% 30.31 in 10.0 mi NNE 11.5 mph - N/A   Clear
2:55 PM 46.4 °F 41.1 °F 28.4 °F 50% 30.31 in 10.0 mi NNE 11.5 mph 18.4 mph N/A   Clear
3:15 PM 46.4 °F 41.5 °F 26.6 °F 46% 30.30 in 10.0 mi NE 10.4 mph 17.3 mph N/A   Clear
3:35 PM 46.4 °F 41.5 °F 26.6 °F 46% 30.29 in 10.0 mi NNE 10.4 mph 19.6 mph N/A   Clear
3:55 PM 48.2 °F - 26.6 °F 43% 30.28 in 10.0 mi NNE 9.2 mph 18.4 mph N/A   Clear
4:15 PM 48.2 °F - 28.4 °F 46% 30.28 in 10.0 mi NNE 11.5 mph - N/A   Clear
4:35 PM 50.0 °F - 28.4 °F 43% 30.27 in 10.0 mi NE 6.9 mph 16.1 mph N/A   Clear
4:55 PM 50.0 °F - 28.4 °F 43% 30.27 in 10.0 mi NE 11.5 mph - N/A   Clear
5:15 PM 46.4 °F 41.1 °F 26.6 °F 46% 30.27 in 10.0 mi ENE 11.5 mph 16.1 mph N/A   Clear
5:35 PM 46.4 °F 41.9 °F 26.6 °F 46% 30.27 in 10.0 mi ENE 9.2 mph - N/A   Clear
5:55 PM 44.6 °F 39.2 °F 24.8 °F 46% 30.27 in 10.0 mi ENE 10.4 mph 16.1 mph N/A   Clear
6:15 PM 44.6 °F 39.7 °F 24.8 °F 46% 30.27 in 10.0 mi ENE 9.2 mph - N/A   Clear
6:35 PM 42.8 °F 37.0 °F 24.8 °F 49% 30.27 in 10.0 mi NE 10.4 mph - N/A   Clear
6:55 PM 42.8 °F 37.0 °F 24.8 °F 49% 30.27 in 10.0 mi NE 10.4 mph - N/A   Clear
7:15 PM 42.8 °F 38.0 °F 24.8 °F 49% 30.28 in 10.0 mi ENE 8.1 mph - N/A   Clear
7:35 PM 42.8 °F 37.5 °F 24.8 °F 49% 30.28 in 10.0 mi NE 9.2 mph 16.1 mph N/A   Clear
7:55 PM 41.0 °F 35.2 °F 24.8 °F 53% 30.27 in 10.0 mi NE 9.2 mph - N/A   Clear
8:15 PM 41.0 °F 35.2 °F 23.0 °F 49% 30.27 in 10.0 mi NE 9.2 mph - N/A   Clear
8:35 PM 41.0 °F 35.8 °F 24.8 °F 53% 30.28 in 10.0 mi NE 8.1 mph - N/A   Clear
8:56 PM 39.2 °F 34.2 °F 24.8 °F 56% 30.28 in 10.0 mi NE 6.9 mph - N/A   Clear
9:15 PM 39.2 °F 35.0 °F 23.0 °F 52% 30.28 in 10.0 mi NNE 5.8 mph - N/A   Scattered Clouds
9:35 PM 39.2 °F 34.2 °F 23.0 °F 52% 30.28 in 10.0 mi NNE 6.9 mph - N/A   Scattered Clouds
9:54 PM 37.4 °F 33.8 °F 23.0 °F 56% 30.28 in 10.0 mi NNE 4.6 mph - N/A   Clear
10:15 PM 37.4 °F - 23.0 °F 56% 30.28 in 10.0 mi Calm Calm - N/A   Clear
10:35 PM 37.4 °F 33.8 °F 24.8 °F 60% 30.27 in 10.0 mi NE 4.6 mph - N/A   Clear
10:55 PM 37.4 °F 33.8 °F 24.8 °F 60% 30.27 in 10.0 mi NNE 4.6 mph - N/A   Scattered Clouds
11:15 PM 37.4 °F 34.9 °F 24.8 °F 60% 30.27 in 10.0 mi NNE 3.5 mph - N/A   Scattered Clouds
11:30 PM 35.6 °F 32.8 °F 24.8 °F 65% 30.27 in 10.0 mi NE 3.5 mph - N/A   Scattered Clouds
11:55 PM 37.4 °F 31.4 °F 24.8 °F 60% 30.26 in 10.0 mi NE 8.1 mph - N/A   Overcast